Latest Coastal Weather Observations for Albion Park

IDN60701

Issued at 5:21 pm EST Sunday 24 May 2015 (issued every 10 minutes, with the page automatically refreshed every 10 minutes)

About coastal observations | Map of coastal stations | Coastal observations for NSW | Marine services | Other Formats
Station Details ID: 068241 Name: WOLLONGONG AIRPORT Lat: -34.56 Lon: 150.79 Height: 8.0 m
Data from the previous 72 hours. | See also: Recent months at Albion Park
Date/Time
EST
Temp

°C
Wind Pressure Rain
since 9am
mm
Weather Cloud Vis
km
Sea
Height
m
Swell
Dir
 
Speed
knots
Gust
knots
hPa Trend Height
m
Period
s
Dir
24/05:00pm 12.5 W 6 7 1031.3 - 0.0 - - 10 - - - -
24/04:30pm 16.7 NNE 3 4 1031.0 - 0.0 - - 10 - - - -
24/04:00pm 17.3 NNE 4 5 1030.6 - 0.0 - - 10 - - - -
24/03:30pm 17.8 NE 4 5 1030.5 - 0.0 - - 10 - - - -
24/03:00pm 18.0 NE 4 6 1030.6 - 0.0 - - 10 - - - -
24/02:30pm 18.3 NE 4 6 1030.8 - 0.0 - - 10 - - - -
24/02:00pm 17.9 NE 5 7 1030.8 - 0.0 - - 10 - - - -
24/01:30pm 18.0 ENE 6 7 1030.7 - 0.0 - - 10 - - - -
24/01:00pm 18.1 NE 7 8 1030.8 - 0.0 - - 10 - - - -
24/12:30pm 17.9 E 5 7 1031.1 - 0.0 - - 10 - - - -
24/12:00pm 18.0 NNE 4 8 1031.5 - 0.0 - Mostly clear 10 - - - -
24/11:30am 17.4 S 3 6 1031.9 - 0.0 - - 10 - - - -
24/11:00am 16.9 S 4 6 1032.1 - 0.0 - - 10 - - - -
24/10:30am 16.5 SW 2 7 1032.4 - 0.0 - - 10 - - - -
24/09:00am 11.7 CALM 0 0 1032.4 - 0.0 - Mostly clear 10 - - - -
24/08:30am 9.6 CALM 0 0 1032.3 - 0.0 - Cloudy 10 - - - -
24/08:00am 8.3 SW 4 5 1031.9 - 0.0 - Partly cloudy 10 - - - -
24/07:30am 7.3 WSW 4 6 1031.4 - 0.0 - Partly cloudy 10 - - - -
24/07:00am 7.2 WSW 5 6 1031.0 - 0.0 - Partly cloudy 10 - - - -
24/06:30am 7.2 WSW 4 4 1030.9 - 0.0 - Partly cloudy 10 - - - -
24/06:00am 7.8 WSW 6 7 1030.6 - 0.0 - Partly cloudy 10 - - - -
24/05:30am 8.3 W 3 5 1030.3 - 0.0 - Partly cloudy 10 - - - -
24/05:00am 8.3 SW 4 5 1030.1 - 0.0 - Partly cloudy 10 - - - -
24/04:30am 8.5 WSW 8 10 1030.0 - 0.0 - Partly cloudy 10 - - - -
24/04:00am 7.6 WSW 6 7 1029.9 - 0.0 - - 10 - - - -
24/03:30am 7.5 WSW 6 6 1029.7 - 0.0 - - 10 - - - -
24/03:00am 7.3 WSW 7 8 1029.8 - 0.0 - - 10 - - - -
24/02:30am 7.1 W 5 6 1029.8 - 0.0 - Partly cloudy 10 - - - -
24/02:00am 6.6 W 5 5 1030.0 - 0.0 - Partly cloudy 10 - - - -
24/01:30am 6.5 W 5 6 1029.9 - 0.0 - - 10 - - - -
24/01:00am 7.3 W 6 7 1029.9 - 0.0 - - 10 - - - -
24/12:30am 6.8 WSW 4 6 1029.9 - 0.0 - - 10 - - - -
 
Date/Time
EST
Temp

°C
Wind Pressure Rain
since 9am
mm
Weather Cloud Vis
km
Sea
Height
m
Swell
Dir
 
Speed
knots
Gust
knots
hPa Trend Height
m
Period
s
Dir
23/11:30pm 7.6 SW 4 5 1030.0 - 0.0 - - 10 - - - -
23/11:00pm 8.6 WSW 9 11 1029.9 - 0.0 - - 10 - - - -
23/10:30pm 7.8 W 7 8 1029.9 - 0.0 - - 10 - - - -
23/10:00pm 8.3 W 6 8 1030.0 - 0.0 - - 10 - - - -
23/09:30pm 8.2 W 5 7 1030.1 - 0.0 - - 10 - - - -
23/09:00pm 8.4 W 6 7 1030.2 - 0.0 - - 10 - - - -
23/08:30pm 8.8 WSW 6 7 1030.3 - 0.0 - - 10 - - - -
23/08:00pm 9.2 W 5 7 1030.2 - 0.0 - - 10 - - - -
23/07:30pm 9.2 WSW 5 8 1030.1 - 0.0 - - 10 - - - -
23/07:00pm 9.4 W 8 10 1030.0 - 0.0 - - 10 - - - -
23/06:30pm 10.0 W 5 7 1029.8 - 0.0 - - 10 - - - -
23/06:00pm 10.6 SW 5 5 1029.7 - 0.0 - - 10 - - - -
23/05:30pm 12.4 SSW 6 7 1029.3 - 0.0 - - 10 - - - -
23/05:00pm 13.8 SSE 7 11 1029.1 - 0.0 - - 10 - - - -
23/04:30pm 14.6 SSE 7 11 1029.0 - 0.0 - - 10 - - - -
23/04:00pm 15.5 SSE 8 13 1028.9 - 0.0 - - 10 - - - -
23/03:30pm 16.0 SE 7 10 1028.6 - 0.0 - - 10 - - - -
23/03:00pm 16.6 S 6 9 1028.4 - 0.0 - - 10 - - - -
23/02:30pm 16.6 SSE 6 9 1028.3 - 0.0 - - 10 - - - -
23/02:00pm 16.5 SSE 9 11 1028.4 - 0.0 - Partly cloudy 10 - - - -
23/01:30pm 16.8 WSW 7 10 1028.6 - 0.0 - Partly cloudy 10 - - - -
23/01:00pm 16.4 SSW 8 12 1028.6 - 0.0 - Partly cloudy 10 - - - -
23/12:30pm 16.7 SW 10 14 1028.7 - 0.0 - Partly cloudy 10 - - - -
23/12:00pm 16.2 SW 11 15 1028.9 - 0.0 - Mostly clear 10 - - - -
23/11:30am 16.2 SSW 11 16 1029.4 - 0.0 - - 10 - - - -
23/11:00am 15.8 SSW 11 14 1029.7 - 0.0 - - 10 - - - -
23/10:30am 15.6 SW 9 15 1029.9 - 0.0 - Partly cloudy 10 - - - -
23/10:00am 15.1 SW 9 14 1029.9 - 0.0 - Cloudy 10 - - - -
23/09:30am 15.2 SW 12 16 1029.6 - 0.0 - Partly cloudy 10 - - - -
23/09:00am 14.1 WSW 10 13 1029.4 - 9.8 - - 10 - - - -
23/08:30am 12.9 WSW 13 17 1029.2 - 9.8 - Partly cloudy 10 - - - -
23/08:00am 12.0 WSW 9 12 1029.1 - 9.8 - - 10 - - - -
23/07:30am 11.3 W 10 15 1028.8 - 9.8 - - 10 - - - -
23/07:00am 10.9 W 10 14 1028.5 - 9.8 - Partly cloudy 10 - - - -
23/06:30am 10.9 WSW 9 13 1028.3 - 9.8 - Partly cloudy 10 - - - -
23/06:00am 11.6 WSW 11 17 1028.0 - 9.8 - Mostly cloudy 10 - - - -
23/05:30am 11.6 WSW 10 15 1027.6 - 9.8 - Partly cloudy 10 - - - -
23/05:00am 11.5 SW 10 15 1027.5 - 9.8 - Partly cloudy 10 - - - -
23/04:30am 11.5 WSW 11 15 1027.5 - 9.8 - Partly cloudy 10 - - - -
23/04:00am 12.6 WSW 14 20 1027.3 - 9.8 - Cloudy 10 - - - -
23/03:30am 12.9 SW 10 19 1027.3 - 9.8 - Cloudy 10 - - - -
23/03:00am 12.8 SW 12 17 1027.3 - 9.8 - Mostly cloudy 10 - - - -
23/02:43am 13.1 SW 16 26 1027.3 - 9.8 - Cloudy 10 - - - -
23/02:30am 13.2 SW 15 23 1027.4 - 9.8 - Cloudy 10 - - - -
23/02:06am 13.0 SW 15 26 1027.2 - 9.8 - Partly cloudy 10 - - - -
23/02:00am 12.9 SW 14 23 1027.3 - 9.8 - Partly cloudy 10 - - - -
23/01:30am 12.9 SW 10 17 1027.2 - 9.8 - Partly cloudy 10 - - - -
23/01:00am 13.0 SW 14 21 1027.1 - 9.8 - Partly cloudy 10 - - - -
23/12:30am 12.9 SW 14 23 1027.0 - 9.8 - Partly cloudy 10 - - - -
23/12:12am 12.6 SSW 13 20 1027.1 - 9.8 - Partly cloudy 10 - - - -
23/12:00am 12.4 SSW 15 21 1027.1 - 9.8 - Cloudy 10 - - - -
 
Date/Time
EST
Temp

°C
Wind Pressure Rain
since 9am
mm
Weather Cloud Vis
km
Sea
Height
m
Swell
Dir
 
Speed
knots
Gust
knots
hPa Trend Height
m
Period
s
Dir
22/11:52pm 12.4 SW 15 25 1027.2 - 9.8 - Partly cloudy 10 - - - -
22/11:45pm 12.1 SSW 11 17 1027.2 - 9.8 - Partly cloudy 10 - - - -
22/11:39pm 12.2 SSW 12 17 1027.2 - 9.8 - Partly cloudy 10 - - - -
22/11:30pm 12.3 SSW 13 18 1027.3 - 9.8 - Partly cloudy 10 - - - -
22/11:06pm 12.4 SSW 10 15 1027.1 - 9.8 - Partly cloudy 10 - - - -
22/11:00pm 12.3 SSW 11 18 1027.0 - 9.8 - Partly cloudy 7 - - - -
22/10:50pm 12.4 SSW 12 19 1027.0 - 9.8 - Partly cloudy 5 - - - -
22/10:38pm 12.7 SSW 9 16 1027.1 - 9.4 - Partly cloudy 8 - - - -
22/10:30pm 12.8 SSW 12 17 1027.0 - 9.4 - Partly cloudy 10 - - - -
22/10:00pm 13.0 SSW 12 18 1026.9 - 9.4 - Partly cloudy 10 - - - -
22/09:30pm 13.1 SSW 10 15 1026.5 - 9.4 - Partly cloudy 10 - - - -
22/09:00pm 13.3 SSW 10 15 1026.2 - 9.4 - Cloudy 10 - - - -
22/08:30pm 13.4 SSW 12 17 1026.1 - 9.4 - Partly cloudy 10 - - - -
22/08:00pm 13.2 SSW 12 19 1026.0 - 9.4 - Partly cloudy 10 - - - -
22/07:30pm 13.1 SSW 13 18 1025.7 - 9.4 - Partly cloudy 10 - - - -
22/07:00pm 13.8 SSW 17 31 1025.4 - 9.4 - Partly cloudy 10 - - - -
22/06:54pm 13.5 SSW 15 25 1025.3 - 9.4 - Partly cloudy 10 - - - -
22/06:30pm 13.4 SSW 12 19 1024.9 - 9.4 - Partly cloudy 10 - - - -
22/06:00pm 13.2 SSW 10 15 1024.8 - 9.4 Rain Cloudy 6 - - - -
22/05:30pm 13.5 S 8 15 1024.2 - 9.2 - Partly cloudy 10 - - - -
22/05:00pm 13.2 S 12 19 1023.7 - 9.2 - Partly cloudy 10 - - - -
22/04:30pm 13.2 S 11 17 1023.4 - 9.0 - Partly cloudy 10 - - - -
22/04:18pm 13.2 S 16 27 1023.5 - 9.0 - Partly cloudy 10 - - - -
22/04:17pm 13.1 S 15 27 1023.5 - 9.0 - Partly cloudy 10 - - - -
22/04:06pm 13.2 SSE 9 18 1023.3 - 9.0 - Partly cloudy 6 - - - -
22/04:00pm 13.3 SSE 8 17 1023.3 - 9.0 - Partly cloudy 10 - - - -
22/03:36pm 13.2 S 16 23 1022.7 - 9.0 - Partly cloudy 10 - - - -
22/03:34pm 13.1 S 18 26 1022.6 - 9.0 - Partly cloudy 10 - - - -
22/03:30pm 13.0 S 19 26 1022.6 - 9.0 - Partly cloudy 7 - - - -
22/03:25pm 12.9 S 16 26 1022.8 - 9.0 - Partly cloudy 5 - - - -
22/03:14pm 13.2 SSE 12 19 1022.6 - 8.6 - Partly cloudy 5 - - - -
22/03:13pm 13.2 SSE 12 20 1022.6 - 8.6 - Partly cloudy 6 - - - -
22/03:00pm 13.6 S 13 21 1022.4 - 8.4 Recent precip. Cloudy 10 - - - -
22/02:30pm 13.7 S 17 24 1022.0 - 8.2 - Partly cloudy 10 - - - -
22/02:00pm 14.5 S 16 26 1021.7 - 7.8 - Partly cloudy 10 - - - -
22/01:30pm 14.4 S 16 27 1021.6 - 7.8 - Partly cloudy 10 - - - -
22/01:04pm 13.6 S 21 31 1021.7 - 7.8 - Partly cloudy 8 - - - -
22/01:00pm 13.8 SSW 22 32 1021.7 - 7.8 - Partly cloudy 9 - - - -
22/12:49pm 13.4 SSW 23 33 1021.6 - 7.8 - Partly cloudy 5 - - - -
22/12:38pm 14.1 SSW 17 27 1021.3 - 7.8 - Partly cloudy 10 - - - -
22/12:30pm 13.9 SSW 16 23 1021.2 - 7.8 - Partly cloudy 10 - - - -
22/12:17pm 13.7 S 15 23 1021.2 - 7.8 - Partly cloudy 7 - - - -
22/12:02pm 13.3 S 20 30 1021.4 - 7.6 - Partly cloudy 5 - - - -
22/12:00pm 13.5 S 21 30 1021.4 - 7.6 Rain Cloudy 5 - - - -
22/11:54am 13.9 SSW 21 30 1021.3 - 7.6 - Partly cloudy 5 - - - -
22/11:30am 13.8 SSW 18 30 1021.1 - 7.4 - Partly cloudy 9 - - - -
22/11:18am 14.1 SSW 19 33 1020.9 - 7.4 - Partly cloudy 10 - - - -
22/11:00am 13.5 S 19 30 1020.9 - 7.2 - Partly cloudy 4 - - - -
22/10:54am 13.9 S 17 29 1020.8 - 7.0 - Partly cloudy 4 - - - -
22/10:51am 13.8 S 17 29 1020.6 - 6.6 - Partly cloudy 2 - - - -
22/10:41am 13.9 SSE 13 18 1020.7 - 5.4 - Partly cloudy 3 - - - -
22/10:36am 14.2 S 14 20 1020.5 - 5.0 - Partly cloudy 4 - - - -
22/10:30am 14.5 S 16 27 1020.4 - 4.4 - Partly cloudy 5 - - - -
22/10:13am 14.2 S 19 29 1020.1 - 4.0 - Partly cloudy 5 - - - -
22/10:09am 14.1 S 20 28 1020.1 - 4.0 - Partly cloudy 5 - - - -
22/10:01am 14.3 S 22 34 1020.1 - 3.6 - Partly cloudy 10 - - - -
22/10:00am 14.3 S 22 34 1020.1 - 3.6 - Partly cloudy 10 - - - -
22/09:49am 14.9 SSE 15 28 1019.7 - 3.6 - Partly cloudy 10 - - - -
22/09:41am 14.8 SSE 14 23 1019.5 - 3.4 - Partly cloudy 10 - - - -
22/09:40am 14.8 SSE 14 23 1019.5 - 3.4 - Partly cloudy 10 - - - -
22/09:30am 14.4 SSE 12 22 1019.3 - 3.4 - Partly cloudy 5 - - - -
22/09:03am 13.8 S 18 32 1019.3 - 1.4 - Partly cloudy 1 - - - -
22/09:00am 14.2 S 17 32 1019.2 - 16.6 Rain Cloudy 2 - - - -
22/08:52am 14.4 S 15 21 1018.9 - 14.2 - Partly cloudy 4 - - - -
22/08:35am 14.6 S 13 19 1018.4 - 13.0 - Partly cloudy 10 - - - -
22/08:30am 14.3 S 11 19 1018.5 - 13.0 - Partly cloudy 10 - - - -
22/08:00am 13.9 SSW 11 19 1018.3 - 10.4 - Partly cloudy 4 - - - -
22/07:42am 13.9 S 10 13 1018.1 - 8.6 - Partly cloudy 9 - - - -
22/07:31am 13.9 S 7 11 1018.1 - 8.2 - Partly cloudy 8 - - - -
22/07:30am 13.9 S 7 11 1018.1 - 8.2 - Partly cloudy 8 - - - -
22/07:00am 14.0 SSE 11 17 1017.9 - 5.0 - Partly cloudy 4 - - - -
22/06:53am 14.1 S 13 17 1017.8 - 3.8 - Partly cloudy 5 - - - -
22/06:40am 14.2 S 14 19 1017.3 - 3.2 - Partly cloudy 10 - - - -
22/06:30am 14.3 SSW 14 21 1017.2 - 3.0 - Partly cloudy 10 - - - -
22/06:11am 14.1 SSW 15 25 1016.8 - 3.0 - Partly cloudy 10 - - - -
22/06:00am 14.0 SSW 17 25 1016.8 - 3.0 - Cloudy 10 - - - -
22/05:39am 14.0 SSW 15 25 1016.7 - 3.0 - Partly cloudy 10 - - - -
22/05:30am 13.9 SW 16 23 1016.5 - 3.0 - Partly cloudy 10 - - - -
22/05:07am 13.9 SW 15 25 1016.5 - 3.0 - Partly cloudy 10 - - - -
22/05:04am 14.1 SW 15 25 1016.5 - 3.0 - Partly cloudy 10 - - - -
22/05:00am 14.2 SW 12 21 1016.5 - 3.0 - Partly cloudy 10 - - - -
22/04:46am 13.9 SW 15 25 1016.6 - 3.0 - Partly cloudy 10 - - - -
22/04:41am 13.8 SW 14 22 1016.5 - 3.0 - Partly cloudy 10 - - - -
22/04:30am 13.5 SW 13 21 1016.4 - 3.0 - Partly cloudy 10 - - - -
22/04:00am 13.7 SSW 14 20 1016.6 - 2.8 - Partly cloudy 10 - - - -
22/03:30am 13.8 SSW 18 25 1016.4 - 2.0 - Partly cloudy 10 - - - -
22/03:02am 14.2 SSW 15 25 1016.7 - 1.0 - Partly cloudy 10 - - - -
22/03:00am 14.3 SSW 14 25 1016.7 - 1.0 - Cloudy 10 - - - -
22/02:31am 14.7 SSW 16 29 1016.6 - 1.0 - Partly cloudy 10 - - - -
22/02:30am 14.6 SSW 15 24 1016.6 - 1.0 - Partly cloudy 10 - - - -
22/02:00am 14.9 SSW 20 30 1016.7 - 1.0 - Partly cloudy 10 - - - -
22/01:48am 14.8 SSW 17 27 1017.0 - 1.0 - Partly cloudy 10 - - - -
22/01:30am 14.7 SSW 16 24 1017.1 - 1.0 - Partly cloudy 10 - - - -
22/01:21am 14.7 SW 15 26 1017.1 - 1.0 - Partly cloudy 10 - - - -
22/01:00am 14.2 SW 13 22 1017.3 - 1.0 - Partly cloudy 10 - - - -
22/12:30am 14.6 SSW 14 24 1017.7 - 1.0 - Partly cloudy 10 - - - -
22/12:11am 14.7 SSW 15 25 1017.6 - 1.0 - Partly cloudy 10 - - - -
22/12:00am 14.8 SSW 16 25 1017.6 - 1.0 - Cloudy 10 - - - -
 
Date/Time
EST
Temp

°C
Wind Pressure Rain
since 9am
mm
Weather Cloud Vis
km
Sea
Height
m
Swell
Dir
 
Speed
knots
Gust
knots
hPa Trend Height
m
Period
s
Dir
21/11:55pm 14.7 SSW 15 25 1017.6 - 1.0 - Partly cloudy 10 - - - -
21/11:30pm 14.8 SW 13 21 1017.9 - 1.0 - Partly cloudy 10 - - - -
21/11:02pm 15.0 SSW 15 25 1018.1 - 1.0 - Partly cloudy 10 - - - -
21/11:00pm 15.0 SSW 14 23 1018.1 - 1.0 - Partly cloudy 10 - - - -
21/10:41pm 15.4 SSW 15 25 1017.9 - 1.0 - Partly cloudy 10 - - - -
21/10:30pm 15.2 SW 11 18 1017.9 - 1.0 - Partly cloudy 10 - - - -
21/10:00pm 15.2 SW 13 22 1018.0 - 1.0 - Partly cloudy 10 - - - -
21/09:30pm 14.9 SW 10 17 1018.4 - 1.0 - Partly cloudy 10 - - - -
21/09:00pm 15.4 SW 9 16 1018.5 - 1.0 - Cloudy 10 - - - -
21/08:30pm 15.4 SW 10 18 1018.5 - 1.0 - Partly cloudy 10 - - - -
21/08:00pm 15.2 SSW 12 18 1018.4 - 1.0 - - 10 - - - -
21/07:30pm 15.4 SSW 8 13 1018.2 - 1.0 - Cloudy 10 - - - -
21/07:00pm 14.5 SW 5 8 1018.5 - 1.0 - Partly cloudy 10 - - - -
21/06:30pm 15.2 SW 8 13 1018.4 - 1.0 - Partly cloudy 10 - - - -
21/06:00pm 15.3 S 11 16 1018.1 - 0.6 Rain Partly cloudy 10 - - - -
21/05:47pm 15.3 S 13 17 1018.2 - 0.2 - Partly cloudy 10 - - - -
21/05:35pm 15.4 S 11 17 1018.0 - 0.0 - Partly cloudy 9 - - - -
21/05:30pm 15.9 S 12 17 1018.0 - 0.0 - Partly cloudy 10 - - - -

Other Formats:

Comma delimited format used in spreadsheet applications
http://www.bom.gov.au/fwo/IDN60701/IDN60701.95748.axf

JavaScript Object Notation format (JSON) in row-major order
http://www.bom.gov.au/fwo/IDN60701/IDN60701.95748.json